Time;durP1;ratioP1;P1;durP2;ratioP2;P2;SDS_P1;SDS_P2;PMS_P1;PMS_P2;Temp;Humidity;BMP_temperature;BMP_pressure;BME280_temperature;BME280_humidity;BME280_pressure;Samples;Min_cycle;Max_cycle;Signal;HPM_P1;HPM_P2
2021/12/19 00:02:14;;;;;;;;;;;21.00;46.00;;;;;;4955124;28;19949;-61
2021/12/19 00:08:26;;;;;;;;;;;21.00;46.00;;;;;;4949734;28;20023;-60
2021/12/19 00:10:14;;;;;;;;;;;21.00;46.00;;;;;;4940180;29;20028;-61
2021/12/19 00:12:40;;;;;;;;;;;21.00;46.00;;;;;;4961635;28;20447;-63
2021/12/19 00:15:07;;;;;;;;;;;21.00;46.00;;;;;;4969788;28;20553;-60
2021/12/19 00:17:34;;;;;;;;;;;21.00;46.00;;;;;;4965448;28;20031;-61
2021/12/19 00:20:01;;;;;;;;;;;21.00;46.00;;;;;;4974602;28;19930;-59
2021/12/19 00:22:28;;;;;;;;;;;21.00;46.10;;;;;;4964556;28;19934;-61
2021/12/19 00:24:55;;;;;;;;;;;21.00;46.00;;;;;;4951709;29;19982;-60
2021/12/19 00:27:23;;;;;;;;;;;21.00;46.00;;;;;;4954538;28;19997;-60
2021/12/19 00:29:49;;;;;;;;;;;21.00;46.00;;;;;;4955648;28;19974;-61
2021/12/19 00:32:16;;;;;;;;;;;21.00;46.00;;;;;;4960942;28;19933;-63
2021/12/19 00:34:43;;;;;;;;;;;21.00;46.00;;;;;;4955391;28;20287;-60
2021/12/19 00:37:10;;;;;;;;;;;20.90;45.90;;;;;;4956082;28;19922;-60
2021/12/19 00:39:36;;;;;;;;;;;21.00;46.00;;;;;;4963024;28;19929;-62
2021/12/19 00:42:07;;;;;;;;;;;21.00;46.00;;;;;;4957678;28;20328;-61
2021/12/19 00:44:37;;;;;;;;;;;21.00;46.00;;;;;;4965516;28;19929;-61
2021/12/19 00:47:07;;;;;;;;;;;21.00;46.00;;;;;;4941354;28;20292;-63
2021/12/19 00:49:34;;;;;;;;;;;21.00;46.00;;;;;;4975089;28;19922;-60
2021/12/19 00:52:01;;;;;;;;;;;21.00;46.00;;;;;;4957539;28;20029;-61
2021/12/19 00:54:28;;;;;;;;;;;21.00;46.00;;;;;;4954185;28;19935;-62
2021/12/19 00:56:55;;;;;;;;;;;20.90;45.90;;;;;;4953532;28;19948;-60
2021/12/19 00:59:22;;;;;;;;;;;20.90;45.90;;;;;;4955035;28;19929;-61
2021/12/19 01:01:50;;;;;;;;;;;20.90;45.90;;;;;;4944730;28;19990;-62
2021/12/19 01:04:18;;;;;;;;;;;20.90;45.90;;;;;;4951831;28;19923;-61
2021/12/19 01:06:45;;;;;;;;;;;20.90;45.90;;;;;;4946608;28;20340;-61
2021/12/19 01:09:12;;;;;;;;;;;20.90;45.90;;;;;;4935260;28;19966;-60
2021/12/19 01:11:38;;;;;;;;;;;20.90;45.90;;;;;;4952003;28;19985;-64
2021/12/19 01:14:05;;;;;;;;;;;20.90;45.90;;;;;;4954938;28;19929;-62
2021/12/19 01:16:32;;;;;;;;;;;20.90;45.90;;;;;;4943314;29;19974;-61
2021/12/19 01:19:00;;;;;;;;;;;20.90;45.80;;;;;;4946921;28;19973;-62
2021/12/19 01:21:27;;;;;;;;;;;20.90;45.80;;;;;;4963330;28;19929;-61
2021/12/19 01:23:54;;;;;;;;;;;20.90;45.90;;;;;;4956873;28;19926;-61
2021/12/19 01:26:21;;;;;;;;;;;20.90;45.80;;;;;;4957802;28;20026;-60
2021/12/19 01:28:47;;;;;;;;;;;20.90;45.80;;;;;;4966667;28;19926;-64
2021/12/19 01:31:14;;;;;;;;;;;20.90;45.80;;;;;;4964344;28;20360;-61
2021/12/19 01:33:41;;;;;;;;;;;20.90;45.80;;;;;;4959611;28;20303;-61
2021/12/19 01:36:09;;;;;;;;;;;20.90;45.80;;;;;;4967557;28;19922;-62
2021/12/19 01:38:35;;;;;;;;;;;20.90;45.80;;;;;;4959350;28;19933;-62
2021/12/19 01:41:02;;;;;;;;;;;20.90;45.80;;;;;;4967588;28;19990;-61
2021/12/19 01:43:31;;;;;;;;;;;20.90;45.80;;;;;;4954876;28;20454;-61
2021/12/19 01:45:57;;;;;;;;;;;20.90;45.80;;;;;;4953679;28;19930;-61
2021/12/19 01:48:24;;;;;;;;;;;20.90;45.80;;;;;;4955729;28;19922;-63
2021/12/19 01:50:51;;;;;;;;;;;20.90;45.80;;;;;;4968121;28;20376;-61
2021/12/19 01:53:19;;;;;;;;;;;20.90;45.80;;;;;;4954877;28;19993;-62
2021/12/19 01:55:46;;;;;;;;;;;20.90;45.80;;;;;;4970016;28;19942;-62
2021/12/19 01:58:13;;;;;;;;;;;20.90;45.80;;;;;;4954448;28;20036;-62
2021/12/19 02:00:41;;;;;;;;;;;20.90;45.80;;;;;;4969725;28;19928;-61
2021/12/19 02:03:08;;;;;;;;;;;20.90;45.80;;;;;;4951726;29;20017;-61
2021/12/19 02:05:34;;;;;;;;;;;20.90;45.80;;;;;;4950875;28;19926;-61
2021/12/19 02:08:01;;;;;;;;;;;20.90;45.70;;;;;;4958825;28;20413;-61
2021/12/19 02:10:30;;;;;;;;;;;20.90;45.80;;;;;;4956403;28;20021;-64
2021/12/19 02:12:57;;;;;;;;;;;20.90;45.70;;;;;;4952809;28;19962;-68
2021/12/19 02:15:24;;;;;;;;;;;20.90;45.80;;;;;;4983689;28;19926;-61
2021/12/19 02:17:51;;;;;;;;;;;20.90;45.80;;;;;;4953900;28;19949;-65
2021/12/19 02:20:20;;;;;;;;;;;20.90;45.80;;;;;;4964317;28;20348;-63
2021/12/19 02:22:47;;;;;;;;;;;20.90;45.70;;;;;;4954505;28;19923;-60
2021/12/19 02:25:15;;;;;;;;;;;20.90;45.80;;;;;;4963008;28;19954;-60
2021/12/19 02:27:41;;;;;;;;;;;20.90;45.70;;;;;;4955672;28;19929;-61
2021/12/19 02:30:09;;;;;;;;;;;20.90;45.70;;;;;;4963136;28;20275;-61
2021/12/19 02:32:37;;;;;;;;;;;20.90;45.70;;;;;;4956680;28;19923;-61
2021/12/19 02:35:07;;;;;;;;;;;20.90;45.70;;;;;;4961860;28;19989;-63
2021/12/19 02:38:09;;;;;;;;;;;20.90;45.70;;;;;;4957619;28;19922;-61
2021/12/19 02:48:47;;;;;;;;;;;20.90;46.30;;;;;;4932976;29;20320;-63
2021/12/19 02:51:14;;;;;;;;;;;20.90;45.70;;;;;;4956843;28;19923;-64
2021/12/19 02:53:44;;;;;;;;;;;20.80;45.70;;;;;;4950944;29;20094;-60
2021/12/19 02:56:11;;;;;;;;;;;20.90;45.70;;;;;;4961847;28;19941;-60
2021/12/19 02:58:39;;;;;;;;;;;20.90;45.70;;;;;;4951919;28;20378;-63
2021/12/19 03:01:07;;;;;;;;;;;20.90;45.70;;;;;;4961375;28;20570;-62
2021/12/19 03:03:34;;;;;;;;;;;20.90;45.70;;;;;;4951445;28;20442;-63
2021/12/19 03:06:01;;;;;;;;;;;20.90;45.70;;;;;;4952011;28;19987;-60
2021/12/19 03:08:28;;;;;;;;;;;20.90;45.70;;;;;;4953218;28;20323;-63
2021/12/19 03:17:57;;;;;;;;;;;20.90;45.70;;;;;;4932406;29;20021;-63
2021/12/19 03:19:20;;;;;;;;;;;20.90;45.70;;;;;;4971121;28;19922;-61
2021/12/19 03:21:46;;;;;;;;;;;20.90;45.70;;;;;;4964750;28;19923;-63
2021/12/19 03:24:13;;;;;;;;;;;20.90;45.60;;;;;;4949358;28;19926;-60
2021/12/19 03:26:41;;;;;;;;;;;20.80;45.60;;;;;;4974770;28;19923;-60
2021/12/19 03:29:08;;;;;;;;;;;20.80;45.60;;;;;;4936571;29;20013;-60
2021/12/19 03:31:35;;;;;;;;;;;20.90;45.60;;;;;;4958249;28;20590;-62
2021/12/19 03:34:02;;;;;;;;;;;20.80;45.60;;;;;;4952065;29;19922;-61
2021/12/19 03:36:30;;;;;;;;;;;20.90;45.60;;;;;;4957920;28;19950;-61
2021/12/19 03:38:59;;;;;;;;;;;20.90;45.60;;;;;;4953360;28;19929;-62
2021/12/19 03:41:33;;;;;;;;;;;20.80;45.60;;;;;;4951966;28;19929;-61
2021/12/19 03:44:02;;;;;;;;;;;20.80;45.60;;;;;;4944674;29;19929;-60
2021/12/19 03:46:29;;;;;;;;;;;20.90;45.60;;;;;;4944565;28;20017;-59
2021/12/19 03:48:55;;;;;;;;;;;20.80;45.60;;;;;;4952103;28;20371;-61
2021/12/19 03:51:22;;;;;;;;;;;20.90;45.60;;;;;;4950323;28;20033;-62
2021/12/19 03:53:49;;;;;;;;;;;20.80;45.50;;;;;;4932832;28;19923;-63
2021/12/19 03:56:16;;;;;;;;;;;20.90;45.60;;;;;;4940163;28;19922;-60
2021/12/19 03:58:43;;;;;;;;;;;20.90;45.60;;;;;;4951918;28;20368;-59
2021/12/19 04:01:12;;;;;;;;;;;20.80;45.50;;;;;;4953647;28;19926;-61
2021/12/19 04:03:40;;;;;;;;;;;20.90;45.60;;;;;;4952001;28;19961;-61
2021/12/19 04:06:06;;;;;;;;;;;20.80;45.50;;;;;;4952624;28;19922;-63
2021/12/19 04:08:33;;;;;;;;;;;20.80;45.50;;;;;;4952524;28;20423;-61
2021/12/19 04:11:00;;;;;;;;;;;20.80;45.50;;;;;;4953204;28;19933;-60
2021/12/19 04:13:27;;;;;;;;;;;20.80;45.50;;;;;;4955101;28;20009;-61
2021/12/19 04:15:54;;;;;;;;;;;20.80;45.50;;;;;;4953081;28;19941;-62
2021/12/19 04:18:22;;;;;;;;;;;20.90;45.50;;;;;;4953976;28;19961;-61
2021/12/19 04:20:49;;;;;;;;;;;20.80;45.50;;;;;;4951529;29;19922;-61
2021/12/19 04:23:15;;;;;;;;;;;20.80;45.50;;;;;;4936256;28;19923;-61
2021/12/19 04:25:42;;;;;;;;;;;20.80;45.50;;;;;;4931425;28;19973;-63
2021/12/19 04:28:09;;;;;;;;;;;20.80;45.40;;;;;;4945623;28;19930;-61
2021/12/19 04:30:36;;;;;;;;;;;20.80;45.40;;;;;;4952738;28;19922;-61
2021/12/19 04:33:05;;;;;;;;;;;20.80;45.40;;;;;;4969807;28;19993;-64
2021/12/19 04:35:35;;;;;;;;;;;20.80;45.50;;;;;;4954124;29;19926;-61
2021/12/19 04:38:38;;;;;;;;;;;20.80;45.40;;;;;;4951522;28;19922;-65
2021/12/19 04:52:21;;;;;;;;;;;20.80;45.40;;;;;;4971428;28;20336;-61
2021/12/19 04:55:01;;;;;;;;;;;20.80;45.40;;;;;;4935727;28;19923;-61
2021/12/19 04:57:35;;;;;;;;;;;20.80;45.40;;;;;;4934263;28;19923;-63
2021/12/19 05:00:06;;;;;;;;;;;20.80;45.30;;;;;;4935832;28;20025;-60
2021/12/19 05:02:44;;;;;;;;;;;20.80;45.40;;;;;;4938496;28;19926;-61
2021/12/19 05:16:09;;;;;;;;;;;20.80;45.40;;;;;;4973448;28;20267;-60
2021/12/19 05:18:39;;;;;;;;;;;20.80;45.30;;;;;;4964995;28;20371;-62
2021/12/19 05:21:12;;;;;;;;;;;20.80;45.30;;;;;;4975079;28;19965;-60
2021/12/19 05:24:02;;;;;;;;;;;20.80;45.30;;;;;;4989293;28;19929;-61
2021/12/19 05:26:27;;;;;;;;;;;20.80;45.30;;;;;;4938293;28;19923;-60
2021/12/19 05:28:54;;;;;;;;;;;20.80;45.30;;;;;;4962335;28;19926;-63
2021/12/19 05:31:21;;;;;;;;;;;20.80;45.30;;;;;;4974386;28;19929;-60
2021/12/19 05:33:48;;;;;;;;;;;20.80;45.30;;;;;;4965980;28;20013;-60
2021/12/19 05:47:08;;;;;;;;;;;20.80;45.30;;;;;;4924311;29;19971;-60
2021/12/19 05:49:35;;;;;;;;;;;20.80;45.30;;;;;;4954784;28;20021;-60
2021/12/19 05:52:02;;;;;;;;;;;20.80;45.30;;;;;;4952975;29;19922;-60
2021/12/19 05:54:30;;;;;;;;;;;20.80;45.30;;;;;;4953966;28;19950;-63
2021/12/19 05:56:57;;;;;;;;;;;20.80;45.30;;;;;;4974922;28;20263;-60
2021/12/19 05:59:24;;;;;;;;;;;20.80;45.30;;;;;;4966666;28;20284;-60
2021/12/19 06:01:51;;;;;;;;;;;20.80;45.30;;;;;;4939727;28;19927;-63
2021/12/19 06:04:18;;;;;;;;;;;20.80;45.30;;;;;;4957621;28;20347;-59
2021/12/19 06:06:46;;;;;;;;;;;20.80;45.30;;;;;;4971765;28;19996;-60
2021/12/19 06:09:12;;;;;;;;;;;20.80;45.30;;;;;;4965362;28;19923;-61
2021/12/19 06:11:41;;;;;;;;;;;20.80;45.30;;;;;;4953272;29;20346;-64
2021/12/19 06:14:08;;;;;;;;;;;20.80;45.20;;;;;;4953120;28;19923;-61
2021/12/19 06:16:34;;;;;;;;;;;20.80;45.20;;;;;;4953184;29;19927;-60
2021/12/19 06:19:01;;;;;;;;;;;20.80;45.30;;;;;;4953994;28;19922;-64
2021/12/19 06:21:28;;;;;;;;;;;20.80;45.30;;;;;;4969629;28;19973;-67
2021/12/19 06:23:55;;;;;;;;;;;20.80;45.20;;;;;;4941127;28;20017;-61
2021/12/19 06:26:22;;;;;;;;;;;20.80;45.30;;;;;;4952898;29;19922;-62
2021/12/19 06:28:50;;;;;;;;;;;20.80;45.20;;;;;;4951886;29;19973;-61
2021/12/19 06:31:17;;;;;;;;;;;20.80;45.20;;;;;;4971011;28;19921;-62
2021/12/19 06:33:44;;;;;;;;;;;20.80;45.20;;;;;;4960377;28;19926;-61
2021/12/19 06:36:11;;;;;;;;;;;20.80;45.20;;;;;;4969806;28;20268;-60
2021/12/19 06:38:38;;;;;;;;;;;20.80;45.20;;;;;;4960766;28;19922;-60
2021/12/19 06:41:04;;;;;;;;;;;20.80;45.20;;;;;;4968638;28;20091;-62
2021/12/19 06:43:33;;;;;;;;;;;20.80;45.20;;;;;;4952406;29;19922;-60
2021/12/19 06:46:01;;;;;;;;;;;20.80;45.20;;;;;;4951325;29;20279;-61
2021/12/19 06:48:28;;;;;;;;;;;20.80;45.10;;;;;;4951341;29;19922;-63
2021/12/19 06:50:54;;;;;;;;;;;20.80;45.20;;;;;;4965122;28;19981;-63
2021/12/19 06:53:21;;;;;;;;;;;20.80;45.20;;;;;;4963496;28;19922;-61
2021/12/19 06:55:48;;;;;;;;;;;20.80;45.20;;;;;;4952626;28;19945;-61
2021/12/19 06:58:15;;;;;;;;;;;20.80;45.20;;;;;;4965200;28;19927;-62
2021/12/19 07:00:42;;;;;;;;;;;20.80;45.20;;;;;;4947943;28;20387;-63
2021/12/19 07:03:11;;;;;;;;;;;20.80;45.20;;;;;;4938340;29;19930;-62
2021/12/19 07:05:38;;;;;;;;;;;20.80;45.10;;;;;;4949208;28;19929;-61
2021/12/19 07:08:05;;;;;;;;;;;20.80;45.20;;;;;;4953090;28;19931;-63
2021/12/19 07:10:32;;;;;;;;;;;20.80;45.20;;;;;;4951666;28;19922;-60
2021/12/19 07:13:01;;;;;;;;;;;20.80;45.10;;;;;;4951266;29;21295;-62
2021/12/19 07:15:29;;;;;;;;;;;20.80;45.10;;;;;;4952369;28;19952;-60
2021/12/19 07:17:58;;;;;;;;;;;20.80;45.10;;;;;;4951684;28;19973;-64
2021/12/19 07:20:26;;;;;;;;;;;20.80;45.10;;;;;;4976324;28;19973;-60
2021/12/19 07:22:52;;;;;;;;;;;20.80;45.10;;;;;;4947935;28;20368;-60
2021/12/19 07:25:19;;;;;;;;;;;20.80;45.10;;;;;;4950736;28;19923;-64
2021/12/19 07:27:46;;;;;;;;;;;20.80;45.10;;;;;;4955553;28;19934;-63
2021/12/19 07:30:13;;;;;;;;;;;20.80;45.10;;;;;;4956398;28;19958;-64
2021/12/19 07:32:40;;;;;;;;;;;20.80;45.10;;;;;;4960076;28;19923;-63
2021/12/19 07:35:09;;;;;;;;;;;20.80;45.10;;;;;;4954524;28;19929;-60
2021/12/19 07:37:38;;;;;;;;;;;20.80;45.10;;;;;;4954759;28;19981;-63
2021/12/19 07:40:13;;;;;;;;;;;20.80;45.10;;;;;;4953608;28;20415;-60
2021/12/19 07:42:39;;;;;;;;;;;20.80;45.10;;;;;;4944293;28;19973;-63
2021/12/19 07:45:06;;;;;;;;;;;20.80;45.10;;;;;;4956617;28;19922;-61
2021/12/19 07:47:33;;;;;;;;;;;20.80;45.10;;;;;;4953767;28;19923;-60
2021/12/19 07:50:00;;;;;;;;;;;20.80;45.10;;;;;;4952061;28;19922;-63
2021/12/19 07:52:27;;;;;;;;;;;20.80;45.10;;;;;;4948901;28;19949;-61
2021/12/19 07:54:55;;;;;;;;;;;20.80;45.10;;;;;;4947966;28;20398;-62
2021/12/19 07:57:22;;;;;;;;;;;20.80;45.10;;;;;;4950273;28;20013;-63
2021/12/19 07:59:49;;;;;;;;;;;20.80;45.10;;;;;;4955798;28;19930;-60
2021/12/19 08:02:16;;;;;;;;;;;20.80;45.10;;;;;;4969899;28;19976;-59
2021/12/19 08:04:43;;;;;;;;;;;20.80;45.10;;;;;;4956679;28;19923;-63
2021/12/19 08:07:11;;;;;;;;;;;20.80;45.10;;;;;;4950896;28;19923;-61
2021/12/19 08:09:46;;;;;;;;;;;20.80;45.10;;;;;;4955974;28;19926;-60
2021/12/19 08:12:13;;;;;;;;;;;20.80;45.00;;;;;;4952622;28;20310;-59
2021/12/19 08:14:40;;;;;;;;;;;20.80;45.00;;;;;;4945607;29;19922;-61
2021/12/19 08:17:07;;;;;;;;;;;20.80;45.00;;;;;;4951240;28;20002;-62
2021/12/19 08:19:34;;;;;;;;;;;20.80;45.00;;;;;;4954885;28;20110;-64
2021/12/19 08:22:01;;;;;;;;;;;20.80;45.00;;;;;;4956588;28;20013;-60
2021/12/19 08:24:27;;;;;;;;;;;20.80;45.00;;;;;;4953581;29;20248;-61
2021/12/19 08:26:54;;;;;;;;;;;20.80;45.00;;;;;;4953818;28;19977;-60
2021/12/19 08:29:32;;;;;;;;;;;20.80;45.10;;;;;;4954173;28;19923;-61
2021/12/19 08:31:59;;;;;;;;;;;20.80;45.10;;;;;;4957457;28;19922;-62
2021/12/19 08:34:26;;;;;;;;;;;20.80;45.10;;;;;;4973109;28;19930;-60
2021/12/19 08:36:54;;;;;;;;;;;20.80;45.00;;;;;;4972140;28;19926;-61
2021/12/19 08:39:23;;;;;;;;;;;20.80;45.00;;;;;;4937783;28;19950;-60
2021/12/19 08:41:50;;;;;;;;;;;20.80;45.00;;;;;;4936804;28;19954;-61
2021/12/19 08:44:17;;;;;;;;;;;20.80;45.00;;;;;;4963333;28;19977;-60
2021/12/19 08:46:45;;;;;;;;;;;20.80;45.00;;;;;;4952807;28;19929;-63
2021/12/19 08:49:18;;;;;;;;;;;20.80;45.10;;;;;;4947740;28;19929;-60
2021/12/19 08:51:47;;;;;;;;;;;20.80;45.00;;;;;;4935449;28;19930;-61
2021/12/19 08:54:14;;;;;;;;;;;20.80;45.00;;;;;;4935031;28;19923;-62
2021/12/19 08:56:41;;;;;;;;;;;20.80;45.00;;;;;;4935353;28;20320;-62
2021/12/19 08:59:07;;;;;;;;;;;20.80;45.00;;;;;;4952951;28;19922;-60
2021/12/19 09:01:34;;;;;;;;;;;20.80;45.00;;;;;;4954326;29;19923;-66
2021/12/19 09:04:02;;;;;;;;;;;20.80;45.00;;;;;;4954042;28;19962;-61
2021/12/19 09:06:29;;;;;;;;;;;20.80;45.00;;;;;;4954135;29;19922;-59
2021/12/19 09:08:56;;;;;;;;;;;20.80;45.00;;;;;;4949292;28;19927;-59
2021/12/19 09:11:24;;;;;;;;;;;20.80;45.00;;;;;;4935177;29;20025;-62
2021/12/19 09:13:52;;;;;;;;;;;20.80;45.00;;;;;;4955146;28;20252;-59
2021/12/19 09:16:21;;;;;;;;;;;20.80;45.00;;;;;;4953792;28;19929;-60
2021/12/19 09:18:48;;;;;;;;;;;20.80;45.00;;;;;;4951975;28;19922;-62
2021/12/19 09:21:16;;;;;;;;;;;20.80;45.00;;;;;;4935204;29;19923;-61
2021/12/19 09:23:43;;;;;;;;;;;20.80;45.00;;;;;;4950464;28;20016;-61
2021/12/19 09:26:11;;;;;;;;;;;20.80;45.00;;;;;;4952632;28;19931;-60
2021/12/19 09:28:38;;;;;;;;;;;20.80;45.00;;;;;;4963086;28;20365;-58
2021/12/19 09:31:04;;;;;;;;;;;20.80;45.00;;;;;;4953608;28;19954;-64
2021/12/19 09:33:31;;;;;;;;;;;20.80;45.00;;;;;;4958711;28;19929;-61
2021/12/19 09:35:59;;;;;;;;;;;20.80;44.90;;;;;;4953763;29;20021;-60
2021/12/19 09:38:27;;;;;;;;;;;20.80;44.90;;;;;;4954692;28;19985;-60
2021/12/19 09:41:00;;;;;;;;;;;20.80;44.90;;;;;;4937272;29;19933;-60
2021/12/19 09:43:42;;;;;;;;;;;20.80;44.90;;;;;;4943213;28;19922;-61
2021/12/19 09:46:10;;;;;;;;;;;20.80;44.90;;;;;;4954640;28;19950;-59
2021/12/19 09:48:36;;;;;;;;;;;20.80;44.90;;;;;;4952632;29;19954;-61
2021/12/19 09:51:03;;;;;;;;;;;20.80;44.90;;;;;;4934250;29;19930;-60
2021/12/19 09:53:33;;;;;;;;;;;20.80;44.90;;;;;;4939340;28;20013;-61
2021/12/19 09:55:59;;;;;;;;;;;20.80;44.90;;;;;;4954714;28;19973;-63
2021/12/19 09:58:26;;;;;;;;;;;20.80;44.90;;;;;;4954525;28;19977;-62
2021/12/19 10:00:53;;;;;;;;;;;20.80;44.80;;;;;;4948922;28;19962;-62
2021/12/19 10:03:20;;;;;;;;;;;20.80;44.80;;;;;;4952013;29;19976;-61
2021/12/19 10:05:47;;;;;;;;;;;20.80;44.90;;;;;;4969944;28;19937;-60
2021/12/19 10:08:14;;;;;;;;;;;20.80;44.80;;;;;;4962262;28;20319;-60
2021/12/19 10:10:45;;;;;;;;;;;20.80;44.80;;;;;;4954976;28;19958;-60
2021/12/19 10:13:13;;;;;;;;;;;20.80;44.80;;;;;;4952885;29;20003;-60
2021/12/19 10:15:41;;;;;;;;;;;20.80;44.80;;;;;;4938168;28;19927;-60
2021/12/19 10:18:08;;;;;;;;;;;20.80;44.80;;;;;;4933503;29;19923;-64
2021/12/19 10:20:42;;;;;;;;;;;20.80;44.80;;;;;;4948599;28;19926;-59
2021/12/19 10:23:09;;;;;;;;;;;20.80;44.80;;;;;;4952724;29;19923;-61
2021/12/19 10:25:36;;;;;;;;;;;20.80;44.80;;;;;;4968036;28;19961;-63
2021/12/19 10:28:05;;;;;;;;;;;20.80;44.80;;;;;;4971015;28;19926;-60
2021/12/19 10:30:33;;;;;;;;;;;20.80;44.80;;;;;;4945503;28;19929;-60
2021/12/19 10:33:00;;;;;;;;;;;20.80;44.80;;;;;;4933403;29;19974;-60
2021/12/19 10:35:28;;;;;;;;;;;20.80;44.70;;;;;;4958160;28;19930;-62
2021/12/19 10:37:58;;;;;;;;;;;20.80;44.70;;;;;;4965887;28;19929;-61
2021/12/19 10:40:25;;;;;;;;;;;20.80;44.70;;;;;;4963909;28;20425;-61
2021/12/19 10:42:56;;;;;;;;;;;20.80;44.70;;;;;;4973069;28;20434;-60
2021/12/19 10:45:30;;;;;;;;;;;20.80;44.70;;;;;;4968503;28;20338;-61
2021/12/19 10:48:10;;;;;;;;;;;20.80;44.70;;;;;;4971416;28;19933;-62
2021/12/19 10:50:43;;;;;;;;;;;20.80;44.70;;;;;;4959295;28;19977;-60
2021/12/19 10:53:10;;;;;;;;;;;20.80;44.70;;;;;;4951985;29;19923;-60
2021/12/19 10:55:37;;;;;;;;;;;20.80;44.70;;;;;;4952109;28;19953;-58
2021/12/19 10:58:04;;;;;;;;;;;20.80;44.70;;;;;;4967867;28;19985;-58
2021/12/19 11:00:39;;;;;;;;;;;20.70;44.60;;;;;;4948133;29;19922;-61
2021/12/19 11:03:06;;;;;;;;;;;20.80;44.70;;;;;;4953661;28;19923;-58
2021/12/19 11:05:33;;;;;;;;;;;20.80;44.70;;;;;;4959146;28;19922;-55
2021/12/19 11:08:00;;;;;;;;;;;20.80;44.60;;;;;;4965361;28;19969;-60
2021/12/19 11:10:27;;;;;;;;;;;20.80;44.60;;;;;;4946851;29;19974;-60
2021/12/19 11:13:05;;;;;;;;;;;20.80;44.60;;;;;;4953191;28;19933;-60
2021/12/19 11:15:33;;;;;;;;;;;20.80;44.60;;;;;;4956600;28;19922;-59
2021/12/19 11:18:00;;;;;;;;;;;20.80;44.60;;;;;;4971353;28;19949;-60
2021/12/19 11:20:26;;;;;;;;;;;20.80;44.60;;;;;;4977470;28;19926;-60
2021/12/19 11:22:54;;;;;;;;;;;20.80;44.60;;;;;;4952335;29;19929;-60
2021/12/19 11:25:21;;;;;;;;;;;20.80;45.10;;;;;;4955463;28;19922;-58
2021/12/19 11:27:48;;;;;;;;;;;20.80;44.60;;;;;;4956071;28;19986;-60
2021/12/19 11:30:18;;;;;;;;;;;20.80;44.60;;;;;;4957282;28;19930;-59
2021/12/19 11:32:48;;;;;;;;;;;20.80;44.50;;;;;;4971253;28;19934;-60
2021/12/19 11:35:17;;;;;;;;;;;20.80;44.50;;;;;;4979834;28;20025;-64
2021/12/19 11:37:44;;;;;;;;;;;20.80;44.50;;;;;;4966919;28;19929;-62
2021/12/19 11:40:12;;;;;;;;;;;20.80;44.50;;;;;;4967506;28;19929;-61
2021/12/19 11:42:40;;;;;;;;;;;20.80;44.50;;;;;;4955146;28;19922;-60
2021/12/19 11:45:31;;;;;;;;;;;20.80;44.60;;;;;;4955279;28;20028;-60
2021/12/19 11:48:04;;;;;;;;;;;20.80;44.50;;;;;;4955984;29;19949;-61
2021/12/19 11:50:31;;;;;;;;;;;20.80;44.60;;;;;;4966077;28;19977;-64
2021/12/19 11:52:59;;;;;;;;;;;20.80;44.50;;;;;;4974263;28;19930;-60
2021/12/19 11:55:27;;;;;;;;;;;20.70;44.50;;;;;;4983227;28;20025;-61
2021/12/19 11:58:27;;;;;;;;;;;20.80;44.50;;;;;;4973168;28;19933;-61
2021/12/19 12:00:57;;;;;;;;;;;20.80;44.50;;;;;;4926705;29;19923;-62
2021/12/19 12:03:26;;;;;;;;;;;20.80;44.50;;;;;;4954469;29;20375;-60
2021/12/19 12:05:53;;;;;;;;;;;20.80;44.50;;;;;;4932840;29;19926;-60
2021/12/19 12:08:20;;;;;;;;;;;20.80;44.50;;;;;;4955486;28;19934;-61
2021/12/19 12:11:06;;;;;;;;;;;20.80;44.50;;;;;;4954468;29;19958;-61
2021/12/19 12:13:33;;;;;;;;;;;20.80;44.50;;;;;;4951783;29;20464;-60
2021/12/19 12:16:05;;;;;;;;;;;20.80;44.50;;;;;;4947633;29;20372;-61
2021/12/19 12:18:35;;;;;;;;;;;20.80;44.50;;;;;;4974737;28;20511;-61
2021/12/19 12:21:27;;;;;;;;;;;20.80;44.50;;;;;;4963094;28;20021;-62
2021/12/19 12:23:55;;;;;;;;;;;20.80;44.50;;;;;;4935944;29;19923;-60
2021/12/19 12:26:26;;;;;;;;;;;20.80;44.50;;;;;;4966030;28;20618;-61
2021/12/19 12:28:53;;;;;;;;;;;20.80;44.40;;;;;;4956663;28;20287;-59
2021/12/19 12:31:19;;;;;;;;;;;20.80;44.40;;;;;;4960977;28;19985;-60
2021/12/19 12:33:47;;;;;;;;;;;20.80;44.50;;;;;;4973805;28;19968;-62
2021/12/19 12:36:15;;;;;;;;;;;20.80;44.40;;;;;;4961307;28;20360;-58
2021/12/19 12:38:45;;;;;;;;;;;20.80;44.40;;;;;;4955443;28;20360;-60
2021/12/19 12:41:26;;;;;;;;;;;20.80;44.40;;;;;;4958782;28;20025;-56
2021/12/19 12:43:53;;;;;;;;;;;20.80;44.50;;;;;;4962762;28;20371;-62
2021/12/19 12:46:20;;;;;;;;;;;20.80;44.50;;;;;;4953593;28;20126;-59
2021/12/19 12:48:53;;;;;;;;;;;20.80;44.50;;;;;;4956590;28;19933;-63
2021/12/19 12:51:21;;;;;;;;;;;20.80;44.50;;;;;;4959664;28;19922;-60
2021/12/19 12:53:48;;;;;;;;;;;20.80;44.50;;;;;;4961580;28;19933;-59
2021/12/19 12:56:16;;;;;;;;;;;20.80;44.50;;;;;;4954306;28;20016;-61
2021/12/19 12:58:46;;;;;;;;;;;20.80;44.50;;;;;;4964213;28;20298;-58
2021/12/19 13:01:16;;;;;;;;;;;20.80;44.40;;;;;;4966305;28;19922;-63
2021/12/19 13:04:11;;;;;;;;;;;20.80;44.50;;;;;;4959006;28;19949;-61
2021/12/19 13:06:44;;;;;;;;;;;20.80;44.50;;;;;;4972367;28;20354;-60
2021/12/19 13:09:11;;;;;;;;;;;20.80;44.40;;;;;;4962512;28;20355;-59
2021/12/19 13:11:38;;;;;;;;;;;20.80;44.40;;;;;;4973122;28;19968;-59
2021/12/19 13:14:15;;;;;;;;;;;20.80;44.50;;;;;;4956997;28;19922;-60
2021/12/19 13:16:46;;;;;;;;;;;20.80;44.50;;;;;;4966795;28;20360;-61
2021/12/19 13:19:28;;;;;;;;;;;20.80;44.40;;;;;;4970160;28;20018;-61
2021/12/19 13:21:56;;;;;;;;;;;20.80;44.40;;;;;;4952731;28;20017;-57
2021/12/19 13:24:24;;;;;;;;;;;20.80;44.50;;;;;;4958242;28;19922;-63
2021/12/19 13:27:02;;;;;;;;;;;20.80;44.40;;;;;;4954968;28;19927;-60
2021/12/19 13:29:29;;;;;;;;;;;20.80;44.40;;;;;;4951556;28;19927;-61
2021/12/19 13:31:56;;;;;;;;;;;20.80;44.40;;;;;;4955040;28;20010;-60
2021/12/19 13:34:23;;;;;;;;;;;20.80;44.50;;;;;;4952034;28;19962;-58
2021/12/19 13:37:03;;;;;;;;;;;20.80;44.50;;;;;;4964555;28;19927;-63
2021/12/19 13:39:30;;;;;;;;;;;20.80;44.50;;;;;;4957361;28;20004;-61
2021/12/19 13:42:05;;;;;;;;;;;20.80;44.50;;;;;;4959832;28;19929;-58
2021/12/19 13:44:32;;;;;;;;;;;20.80;44.50;;;;;;4959114;28;19926;-61
2021/12/19 13:46:59;;;;;;;;;;;20.80;44.50;;;;;;4944462;28;19926;-59
2021/12/19 13:49:26;;;;;;;;;;;20.80;44.50;;;;;;4955432;28;19936;-61
2021/12/19 13:51:53;;;;;;;;;;;20.80;44.50;;;;;;4958084;28;19958;-59
2021/12/19 13:54:28;;;;;;;;;;;20.80;44.50;;;;;;4960430;28;19937;-59
2021/12/19 13:56:55;;;;;;;;;;;20.80;44.50;;;;;;4945283;28;20021;-60
2021/12/19 13:59:24;;;;;;;;;;;20.80;44.50;;;;;;4968456;28;20446;-60
2021/12/19 14:01:53;;;;;;;;;;;20.80;44.50;;;;;;4962751;28;19928;-61
2021/12/19 14:04:20;;;;;;;;;;;20.80;44.50;;;;;;4964456;28;19938;-60
2021/12/19 14:06:48;;;;;;;;;;;20.80;44.50;;;;;;4962104;28;19929;-61
2021/12/19 14:09:15;;;;;;;;;;;20.80;44.50;;;;;;4959101;28;19974;-60
2021/12/19 14:11:45;;;;;;;;;;;20.80;44.50;;;;;;4958009;28;19946;-61
2021/12/19 14:14:24;;;;;;;;;;;20.80;44.50;;;;;;4959474;28;20038;-60
2021/12/19 14:16:51;;;;;;;;;;;20.80;44.50;;;;;;4947809;28;19923;-62
2021/12/19 14:19:18;;;;;;;;;;;20.80;44.50;;;;;;4955825;28;19926;-61
2021/12/19 14:21:45;;;;;;;;;;;20.80;44.50;;;;;;4949146;28;19922;-62
2021/12/19 14:24:19;;;;;;;;;;;20.80;44.50;;;;;;4957379;28;19962;-61
2021/12/19 14:26:48;;;;;;;;;;;20.80;44.50;;;;;;4955216;28;20279;-60
2021/12/19 14:29:22;;;;;;;;;;;20.80;44.50;;;;;;4966365;28;19954;-61
2021/12/19 14:31:50;;;;;;;;;;;20.80;44.50;;;;;;4944727;28;19926;-67
2021/12/19 14:34:20;;;;;;;;;;;20.80;44.50;;;;;;4953823;28;20366;-61
2021/12/19 14:36:47;;;;;;;;;;;20.80;45.10;;;;;;4953760;28;19970;-60
2021/12/19 14:39:15;;;;;;;;;;;20.80;44.50;;;;;;4951246;28;19926;-61
2021/12/19 14:41:42;;;;;;;;;;;20.80;44.50;;;;;;4951967;29;20029;-63
2021/12/19 14:44:19;;;;;;;;;;;20.90;44.60;;;;;;4952219;29;19970;-61
2021/12/19 14:46:46;;;;;;;;;;;20.90;44.60;;;;;;4952038;29;20636;-62
2021/12/19 14:49:13;;;;;;;;;;;20.90;44.70;;;;;;4953489;28;19926;-60
2021/12/19 14:51:39;;;;;;;;;;;20.90;44.70;;;;;;4961612;28;19930;-60
2021/12/19 14:54:08;;;;;;;;;;;20.90;44.70;;;;;;4953753;28;20017;-61
2021/12/19 14:56:35;;;;;;;;;;;20.90;44.70;;;;;;4962855;28;19926;-60
2021/12/19 14:59:02;;;;;;;;;;;20.80;44.60;;;;;;4952674;29;20081;-60
2021/12/19 15:01:31;;;;;;;;;;;20.90;44.70;;;;;;4961296;28;20423;-60
2021/12/19 15:03:59;;;;;;;;;;;20.90;44.70;;;;;;4952369;28;19922;-59
2021/12/19 15:06:26;;;;;;;;;;;20.90;44.70;;;;;;4944206;29;20017;-60
2021/12/19 15:08:53;;;;;;;;;;;20.90;44.70;;;;;;4952591;28;19928;-59
2021/12/19 15:11:20;;;;;;;;;;;20.90;44.70;;;;;;4959307;28;19926;-59
2021/12/19 15:13:47;;;;;;;;;;;20.90;44.70;;;;;;4950837;28;19930;-62
2021/12/19 15:16:14;;;;;;;;;;;20.90;44.80;;;;;;4949815;28;20477;-60